createdAt,value
2016-04-05T00:00:01.386Z,1008.32
2016-04-05T00:01:01.405Z,1008.36
2016-04-05T00:02:07.688Z,1008.34
2016-04-05T00:03:14.176Z,1008.37
2016-04-05T00:04:01.460Z,1008.35
2016-04-05T00:05:01.478Z,1008.35
2016-04-05T00:06:01.496Z,1008.33
2016-04-05T00:07:01.531Z,1008.34
2016-04-05T00:08:01.533Z,1008.35
2016-04-05T00:09:01.568Z,1008.32
2016-04-05T00:10:01.570Z,1008.36
2016-04-05T00:11:01.588Z,1008.34
2016-04-05T00:12:07.872Z,1008.33
2016-04-05T00:13:01.656Z,1008.31
2016-04-05T00:14:01.659Z,1008.36
2016-04-05T00:15:01.676Z,1008.33
2016-04-05T00:16:01.679Z,1008.37
2016-04-05T00:17:01.714Z,1008.35
2016-04-05T00:18:01.731Z,1008.37
2016-04-05T00:19:14.485Z,1008.34
2016-04-05T00:20:01.768Z,1008.27
2016-04-05T00:21:01.787Z,1008.28
2016-04-05T00:22:08.071Z,1008.31
2016-04-05T00:23:01.823Z,1008.25
2016-04-05T00:24:17.014Z,1008.3
2016-04-05T00:25:17.016Z,1008.31
2016-04-05T00:26:29.878Z,1008.32
2016-04-05T00:27:17.069Z,1008.33
2016-04-05T00:28:42.759Z,1008.32
2016-04-05T00:29:17.137Z,1008.36
2016-04-05T00:30:17.124Z,1008.34
2016-04-05T00:31:29.877Z,1008.33
2016-04-05T00:32:17.161Z,1008.32
2016-04-05T00:33:17.179Z,1008.27
2016-04-05T00:34:17.197Z,1008.29
2016-04-05T00:35:17.216Z,1008.25
2016-04-05T00:36:17.233Z,1008.24
2016-04-05T00:38:17.270Z,1008.26
2016-04-05T00:39:17.351Z,1008.27
2016-04-05T00:40:23.572Z,1008.24
2016-04-05T00:41:17.325Z,1008.2
2016-04-05T00:42:17.344Z,1008.25
2016-04-05T00:43:17.377Z,1008.21
2016-04-05T00:44:17.412Z,1008.21
2016-04-05T00:45:23.679Z,1008.21
2016-04-05T00:46:17.432Z,1008.15
2016-04-05T00:47:17.451Z,1008.15
2016-04-05T00:48:23.734Z,1008.16
2016-04-05T00:49:17.487Z,1008.17
2016-04-05T00:50:17.505Z,1008.2
2016-04-05T00:51:17.523Z,1008.2
2016-04-05T00:52:23.823Z,1008.19
2016-04-05T00:53:17.560Z,1008.2
2016-04-05T00:54:17.595Z,1008.14
2016-04-05T00:55:17.597Z,1008.11
2016-04-05T00:56:17.615Z,1008.1
2016-04-05T00:57:17.634Z,1008.1
2016-04-05T00:58:17.652Z,1008.09
2016-04-05T00:59:30.420Z,1008.02
2016-04-05T01:00:17.688Z,1007.97
2016-04-05T01:01:36.925Z,1007.97
2016-04-05T01:02:17.741Z,1008.01
2016-04-05T01:03:17.759Z,1008.03
2016-04-05T01:04:17.778Z,1008.01
2016-04-05T01:05:17.797Z,1008.01
2016-04-05T01:06:17.814Z,1007.99
2016-04-05T01:07:17.833Z,1007.97
2016-04-05T01:08:19.272Z,1007.93
2016-04-05T01:09:17.885Z,1007.98
2016-04-05T01:10:17.888Z,1007.93
2016-04-05T01:11:24.171Z,1007.95
2016-04-05T01:12:17.940Z,1007.94
2016-04-05T01:13:17.957Z,1007.94
2016-04-05T01:14:30.742Z,1007.93
2016-04-05T01:15:43.666Z,1007.9
2016-04-05T01:16:18.012Z,1007.9
2016-04-05T01:17:18.031Z,1007.92
2016-04-05T01:18:18.049Z,1007.95
2016-04-05T01:19:24.162Z,1007.94
2016-04-05T01:20:21.149Z,1007.96
2016-04-05T01:21:21.167Z,1007.94
2016-04-05T01:22:21.185Z,1007.97
2016-04-05T01:23:40.406Z,1007.93
2016-04-05T01:24:21.222Z,1007.91
2016-04-05T01:26:30.774Z,1007.79
2016-04-05T01:28:30.826Z,1007.76
2016-04-05T01:29:30.860Z,1007.74
2016-04-05T01:30:30.863Z,1007.74
2016-04-05T01:31:37.131Z,1007.75
2016-04-05T01:32:30.900Z,1007.78
2016-04-05T01:33:30.919Z,1007.79
2016-04-05T01:34:30.936Z,1007.77
2016-04-05T01:35:31.002Z,1007.79
2016-04-05T01:36:30.972Z,1007.74
2016-04-05T01:37:30.975Z,1007.74
2016-04-05T01:38:43.744Z,1007.73
2016-04-05T01:39:31.027Z,1007.73
2016-04-05T01:40:31.047Z,1007.72
2016-04-05T01:41:31.065Z,1007.72
2016-04-05T01:42:43.818Z,1007.71
2016-04-05T01:43:31.102Z,1007.69
2016-04-05T01:44:56.794Z,1007.72
2016-04-05T01:45:31.143Z,1007.71
2016-04-05T01:46:31.236Z,1007.71
2016-04-05T01:47:31.170Z,1007.75
2016-04-05T01:48:31.204Z,1007.75
2016-04-05T01:49:31.213Z,1007.7
2016-04-05T01:50:31.232Z,1007.7
2016-04-05T01:51:31.265Z,1007.63
2016-04-05T01:52:50.490Z,1007.6
2016-04-05T01:53:31.303Z,1007.6
2016-04-05T01:54:56.996Z,1007.6
2016-04-05T01:55:31.340Z,1007.58
2016-04-05T01:56:31.357Z,1007.59
2016-04-05T01:57:31.376Z,1007.62
2016-04-05T01:58:40.894Z,1007.62
2016-04-05T01:59:40.928Z,1007.6
2016-04-05T02:00:53.684Z,1007.62
2016-04-05T02:01:40.965Z,1007.6
2016-04-05T02:02:40.983Z,1007.63
2016-04-05T02:03:41.001Z,1007.69
2016-04-05T02:04:41.020Z,1007.67
2016-04-05T02:05:50.589Z,1007.68
2016-04-05T02:06:50.606Z,1007.67
2016-04-05T02:07:50.630Z,1007.7
2016-04-05T02:08:50.664Z,1007.67
2016-04-05T02:09:50.666Z,1007.68
2016-04-05T02:10:50.685Z,1007.7
2016-04-05T02:11:50.718Z,1007.67
2016-04-05T02:12:50.721Z,1007.71
2016-04-05T02:13:50.739Z,1007.74
2016-04-05T02:14:50.851Z,1007.71
2016-04-05T02:15:50.776Z,1007.73
2016-04-05T02:16:50.809Z,1007.75
2016-04-05T02:17:50.828Z,1007.76
2016-04-05T02:18:50.846Z,1007.73
2016-04-05T02:19:50.865Z,1007.72
2016-04-05T02:21:10.087Z,1007.71
2016-04-05T02:21:53.948Z,1007.69
2016-04-05T02:22:53.967Z,1007.66
2016-04-05T02:23:54.001Z,1007.67
2016-04-05T02:24:54.003Z,1007.67
2016-04-05T02:25:54.037Z,1007.64
2016-04-05T02:26:54.055Z,1007.64
2016-04-05T02:27:55.480Z,1007.64
2016-04-05T02:28:54.092Z,1007.62
2016-04-05T02:29:54.110Z,1007.61
2016-04-05T02:30:54.129Z,1007.59
2016-04-05T02:31:54.147Z,1007.59
2016-04-05T02:32:54.165Z,1007.55
2016-04-05T02:33:54.183Z,1007.5
2016-04-05T02:34:54.202Z,1007.52
2016-04-05T02:35:54.220Z,1007.49
2016-04-05T02:36:54.239Z,1007.48
2016-04-05T02:37:54.257Z,1007.46
2016-04-05T02:38:54.291Z,1007.45
2016-04-05T02:39:54.308Z,1007.43
2016-04-05T02:40:54.327Z,1007.4
2016-04-05T02:41:54.346Z,1007.42
2016-04-05T02:42:54.363Z,1007.41
2016-04-05T02:43:54.383Z,1007.41
2016-04-05T02:44:55.071Z,1007.42
2016-04-05T02:45:54.405Z,1007.43
2016-04-05T02:46:54.426Z,1007.5
2016-04-05T02:47:54.432Z,1007.47
2016-04-05T02:49:07.156Z,1007.51
2016-04-05T02:49:54.428Z,1007.52
2016-04-05T02:51:20.130Z,1007.54
2016-04-05T02:51:54.456Z,1007.51
2016-04-05T02:52:54.470Z,1007.54
2016-04-05T02:53:54.483Z,1007.52
2016-04-05T02:54:54.513Z,1007.51
2016-04-05T02:55:54.546Z,1007.54
2016-04-05T02:56:54.547Z,1007.48
2016-04-05T02:58:07.391Z,1007.49
2016-04-05T02:58:54.580Z,1007.49
2016-04-05T02:59:54.612Z,1007.45
2016-04-05T03:00:54.614Z,1007.4
2016-04-05T03:01:54.632Z,1007.37
2016-04-05T03:02:54.649Z,1007.39
2016-04-05T03:03:54.667Z,1007.37
2016-04-05T03:04:54.700Z,1007.37
2016-04-05T03:05:54.703Z,1007.34
2016-04-05T03:07:01.002Z,1007.32
2016-04-05T03:07:54.755Z,1007.31
2016-04-05T03:09:13.977Z,1007.32
2016-04-05T03:09:54.792Z,1007.3
2016-04-05T03:11:20.483Z,1007.29
2016-04-05T03:11:54.813Z,1007.33
2016-04-05T03:12:54.847Z,1007.3
2016-04-05T03:13:54.882Z,1007.32
2016-04-05T03:14:54.884Z,1007.29
2016-04-05T03:15:54.918Z,1007.32
2016-04-05T03:17:01.186Z,1007.34
2016-04-05T03:17:54.938Z,1007.3
2016-04-05T03:19:07.691Z,1007.34
2016-04-05T03:19:54.975Z,1007.31
2016-04-05T03:21:10.353Z,1007.35
2016-04-05T03:22:10.371Z,1007.35
2016-04-05T03:23:23.124Z,1007.31
2016-04-05T03:24:26.189Z,1007.27
2016-04-05T03:25:26.207Z,1007.26
2016-04-05T03:26:35.773Z,1007.24
2016-04-05T03:27:35.792Z,1007.25
2016-04-05T03:28:35.809Z,1007.28
2016-04-05T03:29:42.094Z,1007.31
2016-04-05T03:30:42.112Z,1007.32
2016-04-05T03:31:35.865Z,1007.31
2016-04-05T03:32:55.089Z,1007.36
2016-04-05T03:33:35.901Z,1007.34
2016-04-05T03:34:35.920Z,1007.33
2016-04-05T03:36:51.128Z,1007.27
2016-04-05T03:37:51.193Z,1007.26
2016-04-05T03:40:06.386Z,1007.29
2016-04-05T03:41:06.405Z,1007.3
2016-04-05T03:42:06.516Z,1007.28
2016-04-05T03:43:19.175Z,1007.27
2016-04-05T03:44:06.444Z,1007.21
2016-04-05T03:45:25.681Z,1007.25
2016-04-05T03:46:06.496Z,1007.23
2016-04-05T03:47:09.593Z,1007.19
2016-04-05T03:48:09.611Z,1007.2
2016-04-05T03:49:09.630Z,1007.19
2016-04-05T03:50:24.819Z,1007.22
2016-04-05T03:51:24.822Z,1007.24
2016-04-05T03:52:24.840Z,1007.26
2016-04-05T03:53:40.046Z,1007.31
2016-04-05T03:54:40.080Z,1007.32
2016-04-05T03:55:46.349Z,1007.32
2016-04-05T03:56:41.524Z,1007.31
2016-04-05T03:57:59.326Z,1007.36
2016-04-05T03:58:43.201Z,1007.35
2016-04-05T03:59:43.218Z,1007.37
2016-04-05T04:01:59.023Z,1007.42
2016-04-05T04:02:59.042Z,1007.4
2016-04-05T04:03:59.075Z,1007.41
2016-04-05T04:05:05.359Z,1007.38
2016-04-05T04:05:59.112Z,1007.41
2016-04-05T04:06:59.131Z,1007.37
2016-04-05T04:07:59.150Z,1007.36
2016-04-05T04:09:11.902Z,1007.36
2016-04-05T04:09:59.186Z,1007.36
2016-04-05T04:10:59.205Z,1007.3
2016-04-05T04:12:11.958Z,1007.33
2016-04-05T04:12:59.256Z,1007.33
2016-04-05T04:14:11.994Z,1007.32
2016-04-05T04:14:59.277Z,1007.36
2016-04-05T04:16:12.030Z,1007.37
2016-04-05T04:17:00.736Z,1007.38
2016-04-05T04:18:18.535Z,1007.37
2016-04-05T04:18:59.351Z,1007.4
2016-04-05T04:21:08.902Z,1007.44
2016-04-05T04:22:08.937Z,1007.42
2016-04-05T04:23:24.126Z,1007.41
2016-04-05T04:24:24.145Z,1007.4
2016-04-05T04:25:24.163Z,1007.38
2016-04-05T04:26:40.041Z,1007.33
2016-04-05T04:27:40.060Z,1007.35
2016-04-05T04:28:55.221Z,1007.35
2016-04-05T04:29:55.255Z,1007.26
2016-04-05T04:31:01.523Z,1007.27
2016-04-05T04:31:56.698Z,1007.3
2016-04-05T04:34:10.485Z,1007.23
2016-04-05T04:35:10.503Z,1007.24
2016-04-05T04:37:26.415Z,1007.19
2016-04-05T04:38:26.433Z,1007.19
2016-04-05T04:41:07.503Z,1007.26
2016-04-05T04:41:41.847Z,1007.3
2016-04-05T04:42:41.866Z,1007.37
2016-04-05T04:43:57.027Z,1007.4
2016-04-05T04:44:57.061Z,1007.4
2016-04-05T04:47:01.661Z,1007.35
2016-04-05T04:48:01.679Z,1007.34
2016-04-05T04:49:16.869Z,1007.39
2016-04-05T04:50:16.871Z,1007.37
2016-04-05T04:51:16.890Z,1007.32
2016-04-05T04:52:16.908Z,1007.28
2016-04-05T04:53:16.926Z,1007.3
2016-04-05T04:54:16.961Z,1007.27
2016-04-05T04:55:16.963Z,1007.31
2016-04-05T04:56:16.996Z,1007.28
2016-04-05T04:57:17.000Z,1007.26
2016-04-05T04:58:17.034Z,1007.22
2016-04-05T04:59:17.177Z,1007.18
2016-04-05T05:00:17.070Z,1007.19
2016-04-05T05:01:17.167Z,1007.21
2016-04-05T05:02:17.107Z,1007.23
2016-04-05T05:03:17.125Z,1007.25
2016-04-05T05:04:17.143Z,1007.25
2016-04-05T05:05:17.162Z,1007.26
2016-04-05T05:06:17.180Z,1007.25
2016-04-05T05:07:17.198Z,1007.21
2016-04-05T05:08:17.217Z,1007.2
2016-04-05T05:09:17.236Z,1007.26
2016-04-05T05:10:17.253Z,1007.29
2016-04-05T05:11:17.272Z,1007.29
2016-04-05T05:12:30.040Z,1007.35
2016-04-05T05:13:17.308Z,1007.27
2016-04-05T05:14:36.545Z,1007.3
2016-04-05T05:15:18.861Z,1007.29
2016-04-05T05:16:17.380Z,1007.31
2016-04-05T05:17:17.382Z,1007.31
2016-04-05T05:18:17.415Z,1007.27
2016-04-05T05:19:17.434Z,1007.28
2016-04-05T05:20:17.452Z,1007.3
2016-04-05T05:21:17.470Z,1007.26
2016-04-05T05:22:17.489Z,1007.23
2016-04-05T05:23:17.507Z,1007.22
2016-04-05T05:24:17.526Z,1007.21
2016-04-05T05:25:17.544Z,1007.22
2016-04-05T05:26:17.562Z,1007.21
2016-04-05T05:27:17.580Z,1007.22
2016-04-05T05:28:17.599Z,1007.19
2016-04-05T05:29:17.618Z,1007.2
2016-04-05T05:30:17.667Z,1007.21
2016-04-05T05:31:17.654Z,1007.21
2016-04-05T05:32:17.687Z,1007.19
2016-04-05T05:33:17.706Z,1007.19
2016-04-05T05:34:17.724Z,1007.2
2016-04-05T05:35:17.742Z,1007.21
2016-04-05T05:36:17.761Z,1007.2
2016-04-05T05:37:17.779Z,1007.21
2016-04-05T05:38:30.531Z,1007.2
2016-04-05T05:39:17.817Z,1007.26
2016-04-05T05:40:43.506Z,1007.21
2016-04-05T05:41:27.399Z,1007.23
2016-04-05T05:42:27.418Z,1007.22
2016-04-05T05:43:27.436Z,1007.24
2016-04-05T05:44:27.455Z,1007.22
2016-04-05T05:45:42.645Z,1007.23
2016-04-05T05:46:42.647Z,1007.21
2016-04-05T05:47:42.666Z,1007.22
2016-04-05T05:48:42.699Z,1007.22
2016-04-05T05:49:42.718Z,1007.21
2016-04-05T05:50:42.720Z,1007.17
2016-04-05T05:52:08.429Z,1007.18
2016-04-05T05:52:55.507Z,1007.15
2016-04-05T05:53:42.791Z,1007.15
2016-04-05T05:54:52.341Z,1007.2
2016-04-05T05:55:52.359Z,1007.15
2016-04-05T05:56:52.377Z,1007.17
2016-04-05T05:58:05.132Z,1007.14
2016-04-05T05:58:52.413Z,1007.14
2016-04-05T05:59:52.463Z,1007.18
2016-04-05T06:00:52.466Z,1007.18
2016-04-05T06:01:52.469Z,1007.18
2016-04-05T06:02:52.596Z,1007.16
2016-04-05T06:03:52.505Z,1007.17
2016-04-05T06:04:52.587Z,1007.13
2016-04-05T06:05:52.557Z,1007.15
2016-04-05T06:07:11.798Z,1007.12
2016-04-05T06:08:11.800Z,1007.09
2016-04-05T06:08:52.612Z,1007.11
2016-04-05T06:10:18.306Z,1007.14
2016-04-05T06:10:52.650Z,1007.16
2016-04-05T06:13:02.329Z,1007.19
2016-04-05T06:14:02.347Z,1007.16
2016-04-05T06:15:17.709Z,1007.13
2016-04-05T06:16:17.666Z,1007.1
2016-04-05T06:17:17.683Z,1007.09
2016-04-05T06:18:17.702Z,1007.12
2016-04-05T06:19:18.345Z,1007.08
2016-04-05T06:20:17.738Z,1007.07
2016-04-05T06:21:30.507Z,1007.1
2016-04-05T06:22:17.791Z,1007.04
2016-04-05T06:23:37.028Z,1007.06
2016-04-05T06:24:17.828Z,1007.01
2016-04-05T06:25:17.846Z,1007.03
2016-04-05T06:26:27.254Z,1006.99
2016-04-05T06:27:27.289Z,1006.99
2016-04-05T06:28:30.369Z,1006.98
2016-04-05T06:29:30.387Z,1006.91
2016-04-05T06:30:43.157Z,1006.93
2016-04-05T06:32:56.130Z,1006.92
2016-04-05T06:33:30.476Z,1006.91
2016-04-05T06:34:30.495Z,1006.89
2016-04-05T06:35:30.513Z,1006.89
2016-04-05T06:36:30.531Z,1006.88
2016-04-05T06:37:30.550Z,1006.84
2016-04-05T06:38:36.834Z,1006.86
2016-04-05T06:39:43.321Z,1006.86
2016-04-05T06:40:30.605Z,1006.85
2016-04-05T06:41:30.623Z,1006.83
2016-04-05T06:42:32.048Z,1006.83
2016-04-05T06:43:56.347Z,1006.81
2016-04-05T06:44:40.256Z,1006.86
2016-04-05T06:45:59.497Z,1006.85
2016-04-05T06:46:46.418Z,1006.79
2016-04-05T06:48:12.110Z,1006.79
2016-04-05T06:48:46.469Z,1006.83
2016-04-05T06:49:46.473Z,1006.83
2016-04-05T06:50:56.022Z,1006.83
2016-04-05T06:51:56.025Z,1006.82
2016-04-05T06:52:56.059Z,1006.85
2016-04-05T06:54:08.814Z,1006.82
2016-04-05T06:54:56.096Z,1006.83
2016-04-05T06:56:21.788Z,1006.83
2016-04-05T06:57:02.401Z,1006.89
2016-04-05T06:57:56.151Z,1006.85
2016-04-05T06:59:02.437Z,1006.86
2016-04-05T06:59:56.187Z,1006.85
2016-04-05T07:00:56.221Z,1006.88
2016-04-05T07:01:56.240Z,1006.84
2016-04-05T07:02:56.257Z,1006.84
2016-04-05T07:03:56.292Z,1006.83
2016-04-05T07:05:02.562Z,1006.82
2016-04-05T07:05:56.328Z,1006.84
2016-04-05T07:07:02.615Z,1006.89
2016-04-05T07:07:56.367Z,1006.84
2016-04-05T07:08:56.369Z,1006.84
2016-04-05T07:09:56.403Z,1006.87
2016-04-05T07:10:56.437Z,1006.83
2016-04-05T07:12:15.646Z,1006.83
2016-04-05T07:12:56.474Z,1006.82
2016-04-05T07:13:56.492Z,1006.81
2016-04-05T07:14:56.511Z,1006.83
2016-04-05T07:15:56.529Z,1006.88
2016-04-05T07:17:02.831Z,1006.88
2016-04-05T07:17:56.566Z,1006.87
2016-04-05T07:19:15.790Z,1006.88
2016-04-05T07:19:56.602Z,1006.89
2016-04-05T07:20:56.621Z,1006.86
2016-04-05T07:22:09.391Z,1006.87
2016-04-05T07:22:56.673Z,1006.89
2016-04-05T07:23:56.707Z,1006.89
2016-04-05T07:25:09.462Z,1006.9
2016-04-05T07:25:58.149Z,1006.9
2016-04-05T07:27:22.451Z,1006.94
2016-04-05T07:28:15.985Z,1006.89
2016-04-05T07:28:56.798Z,1006.88
2016-04-05T07:30:22.490Z,1006.89
2016-04-05T07:31:06.463Z,1006.88
2016-04-05T07:32:06.481Z,1006.89
2016-04-05T07:33:06.514Z,1006.87
2016-04-05T07:34:06.533Z,1006.89
2016-04-05T07:35:17.504Z,1006.92
2016-04-05T07:36:17.507Z,1006.92
2016-04-05T07:37:17.525Z,1006.92
2016-04-05T07:38:17.560Z,1006.93
2016-04-05T07:39:17.578Z,1006.96
2016-04-05T07:40:17.596Z,1006.95
2016-04-05T07:41:17.630Z,1006.91
2016-04-05T07:42:17.648Z,1006.93
2016-04-05T07:43:17.667Z,1006.88
2016-04-05T07:44:17.685Z,1006.92
2016-04-05T07:45:43.375Z,1006.9
2016-04-05T07:46:30.456Z,1006.84
2016-04-05T07:47:17.740Z,1006.85
2016-04-05T07:48:36.961Z,1006.87
2016-04-05T07:49:17.777Z,1006.86
2016-04-05T07:50:17.811Z,1006.85
2016-04-05T07:51:17.829Z,1006.81
2016-04-05T07:52:17.847Z,1006.84
2016-04-05T07:53:17.866Z,1006.9
2016-04-05T07:54:30.634Z,1006.91
2016-04-05T07:55:17.918Z,1006.89
2016-04-05T07:56:17.936Z,1006.91
2016-04-05T07:57:33.767Z,1006.91
2016-04-05T07:58:33.785Z,1006.92
2016-04-05T07:59:33.804Z,1006.93
2016-04-05T08:00:33.868Z,1006.92
2016-04-05T08:01:33.856Z,1006.9
2016-04-05T08:02:35.295Z,1006.9
2016-04-05T08:03:33.909Z,1006.86
2016-04-05T08:04:53.129Z,1006.86
2016-04-05T08:05:37.007Z,1006.86
2016-04-05T08:06:37.026Z,1006.81
2016-04-05T08:07:37.044Z,1006.82
2016-04-05T08:08:37.078Z,1006.83
2016-04-05T08:09:37.096Z,1006.86
2016-04-05T08:10:49.848Z,1006.81
2016-04-05T08:11:37.133Z,1006.83
2016-04-05T08:12:56.353Z,1006.8
2016-04-05T08:13:37.186Z,1006.81
2016-04-05T08:15:02.878Z,1006.76
2016-04-05T08:15:48.206Z,1006.8
2016-04-05T08:16:48.224Z,1006.79
2016-04-05T08:17:48.242Z,1006.79
2016-04-05T08:18:48.261Z,1006.75
2016-04-05T08:19:48.279Z,1006.73
2016-04-05T08:20:48.314Z,1006.72
2016-04-05T08:21:48.347Z,1006.69
2016-04-05T08:22:48.349Z,1006.64
2016-04-05T08:23:48.368Z,1006.65
2016-04-05T08:24:54.667Z,1006.66
2016-04-05T08:25:48.421Z,1006.63
2016-04-05T08:26:48.438Z,1006.58
2016-04-05T08:27:54.738Z,1006.58
2016-04-05T08:28:48.476Z,1006.59
2016-04-05T08:29:48.509Z,1006.57
2016-04-05T08:30:48.559Z,1006.6
2016-04-05T08:31:48.546Z,1006.59
2016-04-05T08:32:48.564Z,1006.6
2016-04-05T08:33:48.598Z,1006.61
2016-04-05T08:34:48.617Z,1006.66
2016-04-05T08:35:48.635Z,1006.64
2016-04-05T08:36:48.653Z,1006.63
2016-04-05T08:37:48.671Z,1006.6
2016-04-05T08:39:01.426Z,1006.63
2016-04-05T08:39:48.723Z,1006.63
2016-04-05T08:40:48.742Z,1006.64
2016-04-05T08:41:48.760Z,1006.65
2016-04-05T08:44:08.002Z,1006.65
2016-04-05T08:44:48.830Z,1006.62
2016-04-05T08:45:48.896Z,1006.65
2016-04-05T08:46:48.867Z,1006.64
2016-04-05T08:47:48.902Z,1006.61
2016-04-05T08:48:48.904Z,1006.64
2016-04-05T08:49:48.923Z,1006.63
2016-04-05T08:50:50.363Z,1006.66
2016-04-05T08:52:01.711Z,1006.63
2016-04-05T08:52:48.993Z,1006.66
2016-04-05T08:53:49.010Z,1006.59
2016-04-05T08:54:49.030Z,1006.6
2016-04-05T08:55:49.063Z,1006.59
2016-04-05T08:57:14.757Z,1006.57
2016-04-05T08:57:58.647Z,1006.62
2016-04-05T08:58:58.665Z,1006.57
2016-04-05T08:59:58.668Z,1006.57
2016-04-05T09:00:58.702Z,1006.58
2016-04-05T09:01:58.735Z,1006.55
2016-04-05T09:02:58.754Z,1006.55
2016-04-05T09:03:58.773Z,1006.52
2016-04-05T09:04:58.807Z,1006.53
2016-04-05T09:05:58.809Z,1006.54
2016-04-05T09:06:58.828Z,1006.53
2016-04-05T09:08:05.145Z,1006.53
2016-04-05T09:08:58.879Z,1006.48
2016-04-05T09:09:58.887Z,1006.48
2016-04-05T09:11:05.190Z,1006.5
2016-04-05T09:11:58.940Z,1006.47
2016-04-05T09:13:18.180Z,1006.46
2016-04-05T09:13:59.070Z,1006.46
2016-04-05T09:16:11.609Z,1006.45
2016-04-05T09:18:18.114Z,1006.47
2016-04-05T09:19:18.149Z,1006.46
2016-04-05T09:20:18.167Z,1006.47
2016-04-05T09:21:18.201Z,1006.44
2016-04-05T09:22:18.219Z,1006.49
2016-04-05T09:23:18.832Z,1006.49
2016-04-05T09:24:30.990Z,1006.47
2016-04-05T09:25:18.274Z,1006.46
2016-04-05T09:26:43.964Z,1006.42
2016-04-05T09:27:50.093Z,1006.48
2016-04-05T09:28:34.266Z,1006.46
2016-04-05T09:29:34.285Z,1006.45
2016-04-05T09:30:34.303Z,1006.46
2016-04-05T09:31:34.337Z,1006.44
2016-04-05T09:32:34.356Z,1006.47
2016-04-05T09:33:34.373Z,1006.46
2016-04-05T09:34:47.142Z,1006.46
2016-04-05T09:35:34.426Z,1006.46
2016-04-05T09:36:53.648Z,1006.47
2016-04-05T09:37:34.463Z,1006.49
2016-04-05T09:38:34.481Z,1006.55
2016-04-05T09:39:34.515Z,1006.57
2016-04-05T09:40:47.267Z,1006.56
2016-04-05T09:41:40.817Z,1006.6
2016-04-05T09:43:00.241Z,1006.56
2016-04-05T09:43:44.245Z,1006.56
2016-04-05T09:44:44.263Z,1006.5
2016-04-05T09:45:57.030Z,1006.5
2016-04-05T09:47:09.989Z,1006.49
2016-04-05T09:48:26.101Z,1006.48
2016-04-05T09:49:13.197Z,1006.49
2016-04-05T09:50:39.030Z,1006.47
2016-04-05T09:51:14.594Z,1006.5
2016-04-05T09:52:13.346Z,1006.5
2016-04-05T09:53:13.272Z,1006.51
2016-04-05T09:54:26.086Z,1006.52
2016-04-05T09:55:13.277Z,1006.5
2016-04-05T09:56:38.966Z,1006.54
2016-04-05T09:57:26.048Z,1006.54
2016-04-05T09:58:13.347Z,1006.57
2016-04-05T09:59:13.396Z,1006.56
2016-04-05T10:00:13.399Z,1006.56
2016-04-05T10:01:14.058Z,1006.59
2016-04-05T10:02:13.437Z,1006.58
2016-04-05T10:03:13.454Z,1006.56
2016-04-05T10:04:14.082Z,1006.62
2016-04-05T10:05:26.225Z,1006.57
2016-04-05T10:06:13.525Z,1006.56
2016-04-05T10:07:13.558Z,1006.55
2016-04-05T10:08:13.561Z,1006.54
2016-04-05T10:09:13.595Z,1006.52
2016-04-05T10:10:23.160Z,1006.51
2016-04-05T10:11:23.194Z,1006.49
2016-04-05T10:12:26.369Z,1006.47
2016-04-05T10:13:26.387Z,1006.48
2016-04-05T10:14:26.422Z,1006.48
2016-04-05T10:15:27.034Z,1006.47
2016-04-05T10:16:27.067Z,1006.51
2016-04-05T10:17:26.477Z,1006.46
2016-04-05T10:18:26.495Z,1006.47
2016-04-05T10:19:36.028Z,1006.45
2016-04-05T10:20:36.063Z,1006.4
2016-04-05T10:21:42.346Z,1006.39
2016-04-05T10:22:36.099Z,1006.39
2016-04-05T10:23:55.336Z,1006.37
2016-04-05T10:24:37.573Z,1006.36
2016-04-05T10:25:36.170Z,1006.4
2016-04-05T10:26:36.204Z,1006.38
2016-04-05T10:27:36.222Z,1006.34
2016-04-05T10:28:37.647Z,1006.36
2016-04-05T10:29:36.259Z,1006.34
2016-04-05T10:30:36.277Z,1006.32
2016-04-05T10:31:36.326Z,1006.32
2016-04-05T10:32:36.329Z,1006.32
2016-04-05T10:33:36.348Z,1006.28
2016-04-05T10:34:36.382Z,1006.23
2016-04-05T10:35:36.400Z,1006.21
2016-04-05T10:36:36.418Z,1006.2
2016-04-05T10:37:36.436Z,1006.21
2016-04-05T10:38:49.204Z,1006.19
2016-04-05T10:39:36.473Z,1006.19
2016-04-05T10:40:36.506Z,1006.18
2016-04-05T10:41:36.525Z,1006.21
2016-04-05T10:42:36.544Z,1006.17
2016-04-05T10:43:36.577Z,1006.2
2016-04-05T10:44:36.581Z,1006.21
2016-04-05T10:45:36.614Z,1006.2
2016-04-05T10:46:37.242Z,1006.23
2016-04-05T10:47:36.650Z,1006.22
2016-04-05T10:48:36.669Z,1006.22
2016-04-05T10:49:49.438Z,1006.23
2016-04-05T10:50:36.736Z,1006.18
2016-04-05T10:52:02.430Z,1006.15
2016-04-05T10:52:36.758Z,1006.18
2016-04-05T10:54:52.029Z,1006.11
2016-04-05T10:55:52.046Z,1006.01
2016-04-05T10:56:52.082Z,1005.99
2016-04-05T10:57:52.099Z,1006.02
2016-04-05T10:58:52.118Z,1006
2016-04-05T10:59:52.136Z,1006
2016-04-05T11:00:52.171Z,1006.01
2016-04-05T11:01:52.188Z,1006.03
2016-04-05T11:03:11.412Z,1006.06
2016-04-05T11:03:55.287Z,1006.07
2016-04-05T11:04:55.307Z,1006.04
2016-04-05T11:05:55.340Z,1006.02
2016-04-05T11:06:55.359Z,1005.98
2016-04-05T11:08:08.105Z,1005.98
2016-04-05T11:09:14.599Z,1006.01
2016-04-05T11:09:55.427Z,1006.02
2016-04-05T11:10:55.445Z,1005.98
2016-04-05T11:12:55.481Z,1006.01
2016-04-05T11:13:55.500Z,1005.97
2016-04-05T11:14:55.534Z,1005.97
2016-04-05T11:15:55.553Z,1005.97
2016-04-05T11:16:55.587Z,1005.99
2016-04-05T11:17:55.604Z,1005.98
2016-04-05T11:19:14.829Z,1006.01
2016-04-05T11:19:58.720Z,1006.05
2016-04-05T11:20:58.737Z,1005.99
2016-04-05T11:21:58.756Z,1006.07
2016-04-05T11:23:58.825Z,1006.02
2016-04-05T11:24:58.827Z,1005.97
2016-04-05T11:25:59.469Z,1005.98
2016-04-05T11:27:05.147Z,1005.95
2016-04-05T11:28:11.650Z,1005.94
2016-04-05T11:28:58.931Z,1005.94
2016-04-05T11:29:58.950Z,1005.9
2016-04-05T11:30:59.218Z,1005.89
2016-04-05T11:31:59.002Z,1005.9
2016-04-05T11:32:59.083Z,1005.85
2016-04-05T11:33:59.038Z,1005.82
2016-04-05T11:34:59.072Z,1005.79
2016-04-05T11:35:59.091Z,1005.83
2016-04-05T11:37:18.315Z,1005.83
2016-04-05T11:37:59.143Z,1005.85
2016-04-05T11:38:59.160Z,1005.82
2016-04-05T11:40:11.932Z,1005.81
2016-04-05T11:40:59.213Z,1005.81
2016-04-05T11:41:59.231Z,1005.81
2016-04-05T11:42:59.265Z,1005.77
2016-04-05T11:43:59.283Z,1005.81
2016-04-05T11:44:59.301Z,1005.82
2016-04-05T11:45:59.320Z,1005.8
2016-04-05T11:46:59.353Z,1005.85
2016-04-05T11:47:59.373Z,1005.82
2016-04-05T11:49:00.812Z,1005.83
2016-04-05T11:50:00.847Z,1005.83
2016-04-05T11:50:59.458Z,1005.8
2016-04-05T11:51:59.475Z,1005.72
2016-04-05T11:52:59.485Z,1005.76
2016-04-05T11:53:59.494Z,1005.74
2016-04-05T11:54:59.519Z,1005.77
2016-04-05T11:55:59.529Z,1005.73
2016-04-05T11:56:59.555Z,1005.75
2016-04-05T11:57:59.571Z,1005.77
2016-04-05T11:58:59.601Z,1005.75
2016-04-05T11:59:59.616Z,1005.74
2016-04-05T12:01:00.242Z,1005.74
2016-04-05T12:02:12.399Z,1005.81
2016-04-05T12:03:12.416Z,1005.79
2016-04-05T12:03:59.713Z,1005.76
2016-04-05T12:04:59.730Z,1005.77
2016-04-05T12:07:15.064Z,1005.74
2016-04-05T12:08:15.097Z,1005.74
2016-04-05T12:09:15.115Z,1005.72
2016-04-05T12:10:15.148Z,1005.74
2016-04-05T12:11:34.370Z,1005.72
2016-04-05T12:12:34.404Z,1005.67
2016-04-05T12:13:40.891Z,1005.66
2016-04-05T12:14:15.284Z,1005.69
2016-04-05T12:15:15.272Z,1005.7
2016-04-05T12:16:30.461Z,1005.68
2016-04-05T12:17:30.480Z,1005.67
2016-04-05T12:18:36.780Z,1005.68
2016-04-05T12:19:31.954Z,1005.68
2016-04-05T12:20:30.566Z,1005.64
2016-04-05T12:21:30.584Z,1005.64
2016-04-05T12:22:43.446Z,1005.63
2016-04-05T12:23:30.636Z,1005.61
2016-04-05T12:24:49.858Z,1005.59
2016-04-05T12:25:30.674Z,1005.57
2016-04-05T12:26:30.707Z,1005.56
2016-04-05T12:27:43.475Z,1005.56
2016-04-05T12:28:30.759Z,1005.53
2016-04-05T12:29:30.794Z,1005.54
2016-04-05T12:30:43.546Z,1005.52
2016-04-05T12:31:30.986Z,1005.53
2016-04-05T12:32:30.863Z,1005.51
2016-04-05T12:33:30.991Z,1005.5
2016-04-05T12:34:50.118Z,1005.52
2016-04-05T12:35:59.762Z,1005.48
2016-04-05T12:36:34.124Z,1005.45
2016-04-05T12:38:08.521Z,1005.41
2016-04-05T12:39:08.540Z,1005.4